createdAt,value
2022-09-01T00:01:55.113Z,100.00
2022-09-01T00:04:27.167Z,100.00
2022-09-01T00:06:56.387Z,100.00
2022-09-01T00:09:24.803Z,100.00
2022-09-01T00:11:55.772Z,100.00
2022-09-01T00:14:30.856Z,100.00
2022-09-01T00:17:00.209Z,100.00
2022-09-01T00:19:30.928Z,100.00
2022-09-01T00:21:58.984Z,100.00
2022-09-01T00:24:27.828Z,100.00
2022-09-01T00:26:57.171Z,100.00
2022-09-01T00:29:26.616Z,100.00
2022-09-01T00:31:55.170Z,100.00
2022-09-01T00:34:23.156Z,100.00
2022-09-01T00:36:52.323Z,100.00
2022-09-01T00:39:20.384Z,100.00
2022-09-01T00:41:50.545Z,100.00
2022-09-01T00:44:23.306Z,100.00
2022-09-01T00:46:55.624Z,100.00
2022-09-01T00:49:29.763Z,100.00
2022-09-01T00:52:04.990Z,100.00
2022-09-01T00:54:36.991Z,100.00
2022-09-01T00:57:06.479Z,100.00
2022-09-01T00:59:34.566Z,100.00
2022-09-01T01:02:02.435Z,100.00
2022-09-01T01:04:31.403Z,100.00
2022-09-01T01:07:03.120Z,100.00
2022-09-01T01:09:36.962Z,100.00
2022-09-01T01:12:06.978Z,100.00
2022-09-01T01:14:39.626Z,100.00
2022-09-01T01:17:07.905Z,100.00
2022-09-01T01:20:01.640Z,100.00
2022-09-01T01:22:57.687Z,100.00
2022-09-01T01:25:27.342Z,100.00
2022-09-01T01:28:05.772Z,100.00
2022-09-01T01:30:35.441Z,100.00
2022-09-01T01:33:03.614Z,100.00
2022-09-01T01:35:33.730Z,100.00
2022-09-01T01:38:03.107Z,100.00
2022-09-01T01:40:32.314Z,100.00
2022-09-01T01:43:01.255Z,100.00
2022-09-01T01:45:29.557Z,100.00
2022-09-01T01:47:57.991Z,100.00
2022-09-01T01:50:29.900Z,100.00
2022-09-01T01:53:02.828Z,100.00
2022-09-01T01:55:32.143Z,100.00
2022-09-01T01:58:01.516Z,100.00
2022-09-01T02:00:35.087Z,100.00
2022-09-01T02:03:03.255Z,100.00
2022-09-01T02:05:33.985Z,100.00
2022-09-01T02:08:04.705Z,100.00
2022-09-01T02:10:37.141Z,100.00
2022-09-01T02:13:07.265Z,100.00
2022-09-01T02:15:44.344Z,100.00
2022-09-01T02:18:14.227Z,100.00
2022-09-01T02:20:42.752Z,100.00
2022-09-01T02:23:12.389Z,100.00
2022-09-01T02:26:05.046Z,100.00
2022-09-01T02:28:36.841Z,100.00
2022-09-01T02:31:08.979Z,100.00
2022-09-01T02:33:38.116Z,100.00
2022-09-01T02:36:10.195Z,100.00
2022-09-01T02:38:41.832Z,100.00
2022-09-01T02:41:23.771Z,100.00
2022-09-01T02:43:52.131Z,100.00
2022-09-01T02:46:24.358Z,100.00
2022-09-01T02:48:52.742Z,100.00
2022-09-01T02:51:22.638Z,100.00
2022-09-01T02:53:53.019Z,100.00
2022-09-01T02:56:25.219Z,100.00
2022-09-01T02:58:54.035Z,100.00
2022-09-01T03:01:25.505Z,100.00
2022-09-01T03:03:55.566Z,100.00
2022-09-01T03:06:24.158Z,100.00
2022-09-01T03:08:53.311Z,100.00
2022-09-01T03:11:24.290Z,100.00
2022-09-01T03:13:52.783Z,100.00
2022-09-01T03:16:22.411Z,100.00
2022-09-01T03:18:50.812Z,100.00
2022-09-01T03:21:18.862Z,100.00
2022-09-01T03:23:47.791Z,100.00
2022-09-01T03:26:18.827Z,100.00
2022-09-01T03:28:48.503Z,100.00
2022-09-01T03:31:18.293Z,100.00
2022-09-01T03:33:46.140Z,100.00
2022-09-01T03:36:19.256Z,100.00
2022-09-01T03:38:49.191Z,100.00
2022-09-01T03:41:18.862Z,100.00
2022-09-01T03:43:48.589Z,100.00
2022-09-01T03:46:20.373Z,100.00
2022-09-01T03:48:50.271Z,100.00
2022-09-01T03:51:19.057Z,100.00
2022-09-01T03:53:47.355Z,100.00
2022-09-01T03:56:15.301Z,100.00
2022-09-01T03:58:47.276Z,100.00
2022-09-01T04:01:17.170Z,100.00
2022-09-01T04:03:48.976Z,100.00
2022-09-01T04:06:19.450Z,100.00
2022-09-01T04:08:47.451Z,100.00
2022-09-01T04:11:19.047Z,100.00
2022-09-01T04:13:48.228Z,100.00
2022-09-01T04:16:41.133Z,100.00
2022-09-01T04:19:16.148Z,100.00
2022-09-01T04:21:44.961Z,100.00
2022-09-01T04:24:15.105Z,100.00
2022-09-01T04:26:46.054Z,100.00
2022-09-01T04:29:14.363Z,100.00
2022-09-01T04:31:43.544Z,100.00
2022-09-01T04:34:13.999Z,100.00
2022-09-01T04:36:44.067Z,100.00
2022-09-01T04:39:13.252Z,100.00
2022-09-01T04:41:45.980Z,100.00
2022-09-01T04:44:17.889Z,100.00
2022-09-01T04:46:50.720Z,100.00
2022-09-01T04:49:22.309Z,100.00
2022-09-01T04:51:53.925Z,100.00
2022-09-01T04:54:23.561Z,100.00
2022-09-01T04:56:52.740Z,100.00
2022-09-01T04:59:23.317Z,100.00
2022-09-01T05:01:55.612Z,100.00
2022-09-01T05:04:27.486Z,100.00
2022-09-01T05:07:00.937Z,100.00
2022-09-01T05:09:30.233Z,100.00
2022-09-01T05:12:10.968Z,100.00
2022-09-01T05:14:45.280Z,100.00
2022-09-01T05:17:14.844Z,100.00
2022-09-01T05:19:45.062Z,100.00
2022-09-01T05:22:13.238Z,100.00
2022-09-01T05:24:42.261Z,100.00
2022-09-01T05:27:12.557Z,100.00
2022-09-01T05:29:41.641Z,100.00
2022-09-01T05:32:12.598Z,100.00
2022-09-01T05:34:43.835Z,100.00
2022-09-01T05:37:13.079Z,100.00
2022-09-01T05:39:41.109Z,100.00
2022-09-01T05:42:09.342Z,100.00
2022-09-01T05:44:38.604Z,100.00
2022-09-01T05:47:12.153Z,100.00
2022-09-01T05:49:50.411Z,100.00
2022-09-01T05:52:22.036Z,100.00
2022-09-01T05:54:50.099Z,100.00
2022-09-01T05:57:33.714Z,100.00
2022-09-01T06:00:10.702Z,100.00
2022-09-01T06:02:38.909Z,100.00
2022-09-01T06:05:09.420Z,100.00
2022-09-01T06:07:38.072Z,100.00
2022-09-01T06:10:06.543Z,100.00
2022-09-01T06:12:34.415Z,100.00
2022-09-01T06:15:02.190Z,100.00
2022-09-01T06:17:30.890Z,100.00
2022-09-01T06:20:02.056Z,100.00
2022-09-01T06:22:31.207Z,100.00
2022-09-01T06:25:02.293Z,100.00
2022-09-01T06:27:30.875Z,100.00
2022-09-01T06:29:58.833Z,100.00
2022-09-01T06:32:27.121Z,100.00
2022-09-01T06:34:58.081Z,100.00
2022-09-01T06:37:26.813Z,100.00
2022-09-01T06:39:57.572Z,100.00
2022-09-01T06:42:26.129Z,100.00
2022-09-01T06:44:53.899Z,100.00
2022-09-01T06:47:21.690Z,100.00
2022-09-01T06:49:51.830Z,100.00
2022-09-01T06:52:23.665Z,100.00
2022-09-01T06:54:53.306Z,100.00
2022-09-01T07:00:18.761Z,100.00
2022-09-01T07:02:47.763Z,100.00
2022-09-01T07:08:09.277Z,100.00
2022-09-01T07:13:36.073Z,100.00
2022-09-01T07:18:58.717Z,100.00
2022-09-01T07:22:06.812Z,100.00
2022-09-01T07:24:18.139Z,100.00
2022-09-01T07:26:53.470Z,100.00
2022-09-01T07:29:23.570Z,100.00
2022-09-01T07:32:43.475Z,100.00
2022-09-01T07:34:41.445Z,100.00
2022-09-01T07:38:48.079Z,100.00
2022-09-01T07:45:33.344Z,100.00
2022-09-01T07:48:03.408Z,100.00
2022-09-01T07:53:22.515Z,100.00
2022-09-01T07:55:52.228Z,100.00
2022-09-01T07:58:22.056Z,100.00
2022-09-01T08:00:53.348Z,100.00
2022-09-01T08:03:24.059Z,100.00
2022-09-01T08:05:57.607Z,100.00
2022-09-01T08:08:28.991Z,100.00
2022-09-01T08:11:04.256Z,100.00
2022-09-01T08:13:38.942Z,100.00
2022-09-01T08:16:19.290Z,100.00
2022-09-01T08:18:49.537Z,100.00
2022-09-01T08:21:19.687Z,100.00
2022-09-01T08:23:47.960Z,100.00
2022-09-01T08:26:18.323Z,100.00
2022-09-01T08:28:54.313Z,100.00
2022-09-01T08:31:30.781Z,100.00
2022-09-01T08:34:00.223Z,100.00
2022-09-01T08:36:28.113Z,100.00
2022-09-01T08:38:55.955Z,100.00
2022-09-01T08:41:38.136Z,100.00
2022-09-01T08:44:14.829Z,100.00
2022-09-01T08:46:45.323Z,100.00
2022-09-01T08:49:25.108Z,100.00
2022-09-01T08:52:00.978Z,100.00
2022-09-01T08:54:36.721Z,100.00
2022-09-01T08:57:10.986Z,100.00
2022-09-01T08:59:39.179Z,100.00
2022-09-01T09:02:23.958Z,100.00
2022-09-01T09:05:01.612Z,100.00
2022-09-01T09:07:45.081Z,100.00
2022-09-01T09:10:18.282Z,100.00
2022-09-01T09:13:01.537Z,100.00
2022-09-01T09:15:40.145Z,100.00
2022-09-01T09:18:20.582Z,100.00
2022-09-01T09:21:15.754Z,100.00
2022-09-01T09:23:48.857Z,100.00
2022-09-01T09:26:22.338Z,100.00
2022-09-01T09:28:50.814Z,100.00
2022-09-01T09:31:33.900Z,100.00
2022-09-01T09:34:05.077Z,100.00
2022-09-01T09:36:36.647Z,100.00
2022-09-01T09:39:11.333Z,100.00
2022-09-01T09:41:40.884Z,100.00
2022-09-01T09:44:22.789Z,100.00
2022-09-01T09:46:51.703Z,100.00
2022-09-01T09:49:34.627Z,100.00
2022-09-01T09:52:18.181Z,100.00
2022-09-01T09:55:05.144Z,100.00
2022-09-01T09:57:39.184Z,100.00
2022-09-01T10:00:16.503Z,100.00
2022-09-01T10:02:46.517Z,100.00
2022-09-01T10:05:30.140Z,100.00
2022-09-01T10:07:59.461Z,100.00
2022-09-01T10:10:32.143Z,100.00
2022-09-01T10:13:02.278Z,100.00
2022-09-01T10:15:34.473Z,100.00
2022-09-01T10:18:30.225Z,100.00
2022-09-01T10:21:02.237Z,100.00
2022-09-01T10:23:34.925Z,100.00
2022-09-01T10:26:09.568Z,100.00
2022-09-01T10:28:48.882Z,100.00
2022-09-01T10:31:19.013Z,100.00
2022-09-01T10:33:47.394Z,98.54
2022-09-01T10:36:17.743Z,100.00
2022-09-01T10:38:50.356Z,98.40
2022-09-01T10:42:00.065Z,100.00
2022-09-01T10:44:33.839Z,92.49
2022-09-01T10:47:06.159Z,94.67
2022-09-01T10:50:01.540Z,98.69
2022-09-01T10:52:57.385Z,96.64
2022-09-01T10:55:32.337Z,90.91
2022-09-01T11:01:11.175Z,100.00
2022-09-01T11:04:02.563Z,100.00
2022-09-01T11:07:11.561Z,100.00
2022-09-01T11:09:38.849Z,100.00
2022-09-01T11:12:39.612Z,100.00
2022-09-01T11:15:35.782Z,100.00
2022-09-01T11:18:08.757Z,100.00
2022-09-01T11:20:39.651Z,100.00
2022-09-01T11:23:12.712Z,100.00
2022-09-01T11:25:45.819Z,95.33
2022-09-01T11:28:39.984Z,97.71
2022-09-01T11:31:22.112Z,100.00
2022-09-01T11:34:14.878Z,100.00
2022-09-01T11:36:55.715Z,89.34
2022-09-01T11:39:35.918Z,83.51
2022-09-01T11:42:13.231Z,74.17
2022-09-01T11:44:47.320Z,75.34
2022-09-01T11:47:19.734Z,82.07
2022-09-01T11:49:51.682Z,83.13
2022-09-01T11:52:21.572Z,74.06
2022-09-01T11:54:50.834Z,81.09
2022-09-01T11:57:24.168Z,76.17
2022-09-01T11:59:52.707Z,75.61
2022-09-01T12:02:23.136Z,80.45
2022-09-01T12:04:51.744Z,68.55
2022-09-01T12:07:31.311Z,67.10
2022-09-01T12:09:59.207Z,63.24
2022-09-01T12:12:33.512Z,64.13
2022-09-01T12:15:06.632Z,63.57
2022-09-01T12:17:34.965Z,66.09
2022-09-01T12:20:23.359Z,71.44
2022-09-01T12:22:54.534Z,80.19
2022-09-01T12:25:26.052Z,80.66
2022-09-01T12:27:55.654Z,69.83
2022-09-01T12:30:27.429Z,71.58
2022-09-01T12:33:22.895Z,66.04
2022-09-01T12:35:43.906Z,60.94
2022-09-01T12:38:23.867Z,70.56
2022-09-01T12:40:54.278Z,73.20
2022-09-01T12:43:31.765Z,69.89
2022-09-01T12:46:02.858Z,65.45
2022-09-01T12:48:34.254Z,61.69
2022-09-01T12:51:03.912Z,62.93
2022-09-01T12:53:36.702Z,68.19
2022-09-01T12:56:20.000Z,62.51
2022-09-01T12:59:03.076Z,58.06
2022-09-01T13:01:33.831Z,61.22
2022-09-01T13:04:11.150Z,65.97
2022-09-01T13:06:39.055Z,73.46
2022-09-01T13:09:06.835Z,70.11
2022-09-01T13:14:25.621Z,68.44
2022-09-01T13:16:53.594Z,63.79
2022-09-01T13:19:27.813Z,61.12
2022-09-01T13:21:58.228Z,58.92
2022-09-01T13:24:30.211Z,59.32
2022-09-01T13:29:48.692Z,61.62
2022-09-01T13:32:19.256Z,60.21
2022-09-01T13:34:50.346Z,59.55
2022-09-01T13:37:18.650Z,74.67
2022-09-01T13:39:47.098Z,74.74
2022-09-01T13:42:16.275Z,67.52
2022-09-01T13:44:44.486Z,60.16
2022-09-01T13:47:30.038Z,55.95
2022-09-01T13:50:08.216Z,57.11
2022-09-01T13:52:38.311Z,57.50
2022-09-01T13:55:08.429Z,60.94
2022-09-01T13:57:36.939Z,58.21
2022-09-01T14:00:08.192Z,60.81
2022-09-01T14:02:37.497Z,59.74
2022-09-01T14:05:05.897Z,66.84
2022-09-01T14:07:33.747Z,60.95
2022-09-01T14:10:01.566Z,58.54
2022-09-01T14:12:30.232Z,65.66
2022-09-01T14:15:17.249Z,66.07
2022-09-01T14:17:49.569Z,62.64
2022-09-01T14:20:19.900Z,60.21
2022-09-01T14:22:48.436Z,68.13
2022-09-01T14:25:17.273Z,61.82
2022-09-01T14:27:45.885Z,63.54
2022-09-01T14:30:22.338Z,61.04
2022-09-01T14:32:52.301Z,63.75
2022-09-01T14:35:24.786Z,62.77
2022-09-01T14:37:53.164Z,66.24
2022-09-01T14:40:24.702Z,63.48
2022-09-01T14:42:53.956Z,67.82
2022-09-01T14:45:24.168Z,67.26
2022-09-01T14:47:55.727Z,67.27
2022-09-01T14:50:26.572Z,64.29
2022-09-01T14:52:56.376Z,69.06
2022-09-01T14:55:25.852Z,64.48
2022-09-01T14:57:54.986Z,56.12
2022-09-01T15:00:25.162Z,57.47
2022-09-01T15:02:56.163Z,56.72
2022-09-01T15:05:24.975Z,57.64
2022-09-01T15:07:53.171Z,53.92
2022-09-01T15:10:25.107Z,55.28
2022-09-01T15:12:54.637Z,54.68
2022-09-01T15:15:22.696Z,53.17
2022-09-01T15:17:50.814Z,53.54
2022-09-01T15:20:37.657Z,53.85
2022-09-01T15:23:05.840Z,55.46
2022-09-01T15:25:33.725Z,55.94
2022-09-01T15:28:01.741Z,51.00
2022-09-01T15:30:29.606Z,53.02
2022-09-01T15:32:57.538Z,53.72
2022-09-01T15:35:29.796Z,52.88
2022-09-01T15:37:58.119Z,52.83
2022-09-01T15:40:27.509Z,51.52
2022-09-01T15:42:55.843Z,51.54
2022-09-01T15:45:25.318Z,52.93
2022-09-01T15:47:53.142Z,54.16
2022-09-01T15:50:23.054Z,57.08
2022-09-01T15:52:58.672Z,61.98
2022-09-01T15:55:28.796Z,56.77
2022-09-01T15:57:56.675Z,59.05
2022-09-01T16:00:26.707Z,58.39
2022-09-01T16:02:56.468Z,59.08
2022-09-01T16:05:25.118Z,61.58
2022-09-01T16:10:32.390Z,66.79
2022-09-01T16:13:03.679Z,71.44
2022-09-01T16:15:31.978Z,66.81
2022-09-01T16:18:24.190Z,68.86
2022-09-01T16:21:00.351Z,70.19
2022-09-01T16:23:40.729Z,69.94
2022-09-01T16:26:11.798Z,69.36
2022-09-01T16:28:40.443Z,72.40
2022-09-01T16:31:14.697Z,71.50
2022-09-01T16:33:47.986Z,69.48
2022-09-01T16:36:29.597Z,72.40
2022-09-01T16:39:08.507Z,71.62
2022-09-01T16:41:48.249Z,77.66
2022-09-01T16:44:26.257Z,86.72
2022-09-01T16:47:02.790Z,93.20
2022-09-01T16:49:38.400Z,98.90
2022-09-01T16:52:15.244Z,100.00
2022-09-01T16:54:59.980Z,100.00
2022-09-01T16:57:41.282Z,96.75
2022-09-01T17:00:13.101Z,96.25
2022-09-01T17:02:49.628Z,98.99
2022-09-01T17:05:24.000Z,97.16
2022-09-01T17:07:56.565Z,97.71
2022-09-01T17:10:34.481Z,100.00
2022-09-01T17:13:16.497Z,98.30
2022-09-01T17:15:49.078Z,100.00
2022-09-01T17:18:22.106Z,100.00
2022-09-01T17:20:58.267Z,100.00
2022-09-01T17:23:29.198Z,100.00
2022-09-01T17:26:03.104Z,100.00
2022-09-01T17:28:37.520Z,100.00
2022-09-01T17:31:14.533Z,100.00
2022-09-01T17:34:01.829Z,100.00
2022-09-01T17:36:44.659Z,100.00
2022-09-01T17:39:24.273Z,100.00
2022-09-01T17:41:57.557Z,100.00
2022-09-01T17:44:37.280Z,100.00
2022-09-01T17:47:12.715Z,100.00
2022-09-01T17:49:48.729Z,100.00
2022-09-01T17:52:24.813Z,100.00
2022-09-01T17:54:59.829Z,100.00
2022-09-01T17:57:33.216Z,100.00
2022-09-01T18:00:09.859Z,100.00
2022-09-01T18:03:06.146Z,100.00
2022-09-01T18:05:40.359Z,100.00
2022-09-01T18:08:15.686Z,100.00
2022-09-01T18:10:48.636Z,100.00
2022-09-01T18:13:36.368Z,100.00
2022-09-01T18:16:17.572Z,100.00
2022-09-01T18:18:48.540Z,100.00
2022-09-01T18:21:20.247Z,100.00
2022-09-01T18:23:52.692Z,100.00
2022-09-01T18:26:27.258Z,100.00
2022-09-01T18:28:55.429Z,100.00
2022-09-01T18:31:42.226Z,100.00
2022-09-01T18:34:17.879Z,100.00
2022-09-01T18:36:55.127Z,100.00
2022-09-01T18:39:29.643Z,100.00
2022-09-01T18:42:07.300Z,100.00
2022-09-01T18:44:45.045Z,100.00
2022-09-01T18:47:15.712Z,100.00
2022-09-01T18:49:56.188Z,100.00
2022-09-01T18:52:42.439Z,100.00
2022-09-01T18:55:19.479Z,100.00
2022-09-01T18:57:51.315Z,100.00
2022-09-01T19:00:20.614Z,100.00
2022-09-01T19:03:12.353Z,100.00
2022-09-01T19:06:02.994Z,100.00
2022-09-01T19:08:47.129Z,100.00
2022-09-01T19:11:22.945Z,100.00
2022-09-01T19:14:00.285Z,100.00
2022-09-01T19:16:42.882Z,100.00
2022-09-01T19:19:24.219Z,100.00
2022-09-01T19:21:55.778Z,100.00
2022-09-01T19:24:29.139Z,100.00
2022-09-01T19:27:01.399Z,100.00
2022-09-01T19:29:34.374Z,100.00
2022-09-01T19:32:06.969Z,100.00
2022-09-01T19:34:40.469Z,100.00
2022-09-01T19:37:16.317Z,100.00
2022-09-01T19:39:49.812Z,100.00
2022-09-01T19:42:27.435Z,100.00
2022-09-01T19:45:06.977Z,100.00
2022-09-01T19:47:43.377Z,100.00
2022-09-01T19:50:17.780Z,100.00
2022-09-01T19:52:55.559Z,100.00
2022-09-01T19:55:31.694Z,100.00
2022-09-01T19:58:04.471Z,100.00
2022-09-01T20:00:51.000Z,100.00
2022-09-01T20:03:23.287Z,100.00
2022-09-01T20:05:58.089Z,100.00
2022-09-01T20:08:31.080Z,100.00
2022-09-01T20:11:03.321Z,100.00
2022-09-01T20:14:12.067Z,100.00
2022-09-01T20:16:44.155Z,100.00
2022-09-01T20:19:16.984Z,100.00
2022-09-01T20:21:48.650Z,100.00
2022-09-01T20:24:25.414Z,100.00
2022-09-01T20:27:00.274Z,100.00
2022-09-01T20:29:36.015Z,100.00
2022-09-01T20:32:05.101Z,100.00
2022-09-01T20:34:43.261Z,100.00
2022-09-01T20:37:18.465Z,100.00
2022-09-01T20:40:01.671Z,100.00
2022-09-01T20:42:41.610Z,100.00
2022-09-01T20:45:14.270Z,100.00
2022-09-01T20:47:45.959Z,100.00
2022-09-01T20:50:15.017Z,100.00
2022-09-01T20:52:57.270Z,100.00
2022-09-01T20:55:30.224Z,100.00
2022-09-01T20:58:04.230Z,100.00
2022-09-01T21:00:38.472Z,100.00
2022-09-01T21:03:14.716Z,100.00
2022-09-01T21:05:49.921Z,100.00
2022-09-01T21:08:34.305Z,100.00
2022-09-01T21:11:13.555Z,100.00
2022-09-01T21:13:54.231Z,100.00
2022-09-01T21:16:32.865Z,100.00
2022-09-01T21:19:07.618Z,100.00
2022-09-01T21:21:42.244Z,100.00
2022-09-01T21:24:11.505Z,100.00
2022-09-01T21:26:40.206Z,100.00
2022-09-01T21:29:28.730Z,100.00
2022-09-01T21:31:57.667Z,100.00
2022-09-01T21:34:25.451Z,100.00
2022-09-01T21:36:55.380Z,100.00
2022-09-01T21:39:24.757Z,100.00
2022-09-01T21:41:52.751Z,100.00
2022-09-01T21:44:21.403Z,100.00
2022-09-01T21:46:50.059Z,100.00
2022-09-01T21:49:17.858Z,100.00
2022-09-01T21:51:46.008Z,100.00
2022-09-01T21:54:13.989Z,100.00
2022-09-01T21:56:43.157Z,100.00
2022-09-01T21:59:13.093Z,100.00
2022-09-01T22:01:40.911Z,100.00
2022-09-01T22:04:09.223Z,100.00
2022-09-01T22:06:39.320Z,100.00
2022-09-01T22:09:20.694Z,100.00
2022-09-01T22:11:51.951Z,100.00
2022-09-01T22:14:20.942Z,100.00
2022-09-01T22:16:49.897Z,100.00
2022-09-01T22:19:18.108Z,100.00
2022-09-01T22:21:48.106Z,100.00
2022-09-01T22:24:18.957Z,100.00
2022-09-01T22:26:48.290Z,100.00
2022-09-01T22:29:18.383Z,100.00
2022-09-01T22:31:46.384Z,100.00
2022-09-01T22:34:14.182Z,100.00
2022-09-01T22:36:44.486Z,100.00
2022-09-01T22:39:13.930Z,100.00
2022-09-01T22:41:42.825Z,100.00
2022-09-01T22:44:11.313Z,100.00
2022-09-01T22:46:41.277Z,100.00
2022-09-01T22:49:09.722Z,100.00
2022-09-01T22:51:39.279Z,100.00
2022-09-01T22:54:07.871Z,100.00
2022-09-01T22:56:39.065Z,100.00
2022-09-01T22:59:10.685Z,100.00
2022-09-01T23:01:42.541Z,100.00
2022-09-01T23:04:12.060Z,100.00
2022-09-01T23:06:41.901Z,100.00
2022-09-01T23:09:09.986Z,100.00
2022-09-01T23:11:38.245Z,100.00
2022-09-01T23:14:06.665Z,100.00
2022-09-01T23:16:35.214Z,100.00
2022-09-01T23:19:05.081Z,100.00
2022-09-01T23:21:35.860Z,100.00
2022-09-01T23:24:04.315Z,100.00
2022-09-01T23:26:33.249Z,100.00
2022-09-01T23:29:01.161Z,100.00
2022-09-01T23:31:31.028Z,100.00
2022-09-01T23:33:59.172Z,100.00
2022-09-01T23:36:29.917Z,100.00
2022-09-01T23:38:58.016Z,100.00
2022-09-01T23:41:30.985Z,100.00
2022-09-01T23:44:00.940Z,100.00
2022-09-01T23:46:31.114Z,100.00
2022-09-01T23:48:59.162Z,100.00
2022-09-01T23:51:28.528Z,100.00
2022-09-01T23:53:56.299Z,100.00
2022-09-01T23:56:26.910Z,100.00
2022-09-01T23:58:55.260Z,100.00
